ダブリン の空港の天気 - METARとTAF

ダブリン空港 ( EIDW / DUB ) - アイルランド ダブリン
飛行場実況気象(Metar)
観測時間11/27 08:30 IST (11/27 08:30 UTC)
風向・風速南 6m/s
視程10km以上
天気現象
少しの雲 雲底高度 340m
気温9℃
湿度76%
気圧1007hPa
METAREIDW 270830Z 19011KT 170V230 9999 FEW011 09/05 Q1007 NOSIG
過去の天気等 Google飛行場航空写真 Wunderground天気予報

過去48時間のMETAR

飛行場予報(TAF)
発表時間: 11/27 05:00 IST (11/27 05:00 UTC)
予報対象時間: 27日6時 IST ~ 28日6時 IST
風向・風速南南西 6m/s
視程10km以上
少しの雲 雲底高度 460m
全天の8割程度の雲 雲底高度 1070m
27日15時 IST ~ 27日24時 IST に一時的に
天気現象弱いしゅう雨
全天の4割程度の積乱雲 雲底高度 610m
TAF EIDW 270500Z 2706/2806 20012KT 9999 FEW015 BKN035
TEMPO 2715/2724 -SHRA SCT020CB